createdAt,value
2017-09-27T00:00:09.282Z,0
2017-09-27T00:01:09.383Z,0
2017-09-27T00:02:09.047Z,0
2017-09-27T00:03:08.391Z,0
2017-09-27T00:04:09.032Z,0
2017-09-27T00:05:08.686Z,0
2017-09-27T00:06:08.993Z,0
2017-09-27T00:07:09.300Z,0
2017-09-27T00:08:09.018Z,0
2017-09-27T00:09:08.963Z,0
2017-09-27T00:10:08.941Z,0
2017-09-27T00:11:09.244Z,0
2017-09-27T00:12:09.240Z,0
2017-09-27T00:13:08.895Z,0
2017-09-27T00:14:08.891Z,0
2017-09-27T00:15:08.874Z,0
2017-09-27T00:16:08.214Z,0
2017-09-27T00:17:08.522Z,0
2017-09-27T00:18:08.822Z,0
2017-09-27T00:19:08.177Z,0
2017-09-27T00:20:08.166Z,0
2017-09-27T00:21:08.788Z,0
2017-09-27T00:22:08.453Z,0
2017-09-27T00:23:08.757Z,0
2017-09-27T00:24:08.748Z,0
2017-09-27T00:25:08.414Z,0
2017-09-27T00:26:08.716Z,0
2017-09-27T00:27:08.389Z,0
2017-09-27T00:28:08.704Z,0
2017-09-27T00:29:08.359Z,0
2017-09-27T00:30:08.994Z,0
2017-09-27T00:31:08.652Z,0
2017-09-27T00:32:07.997Z,0
2017-09-27T00:33:08.308Z,0
2017-09-27T00:34:08.296Z,0
2017-09-27T00:35:08.603Z,0
2017-09-27T00:36:08.591Z,0
2017-09-27T00:37:08.604Z,0
2017-09-27T00:38:08.616Z,0
2017-09-27T00:39:08.544Z,0
2017-09-27T00:40:08.865Z,0
2017-09-27T00:41:07.880Z,0
2017-09-27T00:42:08.503Z,0
2017-09-27T00:43:08.811Z,0
2017-09-27T00:44:08.481Z,0
2017-09-27T00:45:08.467Z,0
2017-09-27T00:46:08.134Z,0
2017-09-27T00:47:08.757Z,0
2017-09-27T00:48:08.754Z,0
2017-09-27T00:49:08.412Z,0
2017-09-27T00:50:08.398Z,0
2017-09-27T00:51:08.061Z,0
2017-09-27T00:52:08.377Z,0
2017-09-27T00:53:08.354Z,0
2017-09-27T00:54:08.699Z,0
2017-09-27T00:55:08.020Z,0
2017-09-27T00:56:07.995Z,0
2017-09-27T00:57:07.660Z,0
2017-09-27T00:58:08.619Z,0
2017-09-27T00:59:08.283Z,0
2017-09-27T01:00:08.270Z,0
2017-09-27T01:01:08.255Z,0
2017-09-27T01:02:08.556Z,0
2017-09-27T01:03:08.229Z,0
2017-09-27T01:04:08.217Z,0
2017-09-27T01:05:08.204Z,0
2017-09-27T01:06:08.181Z,0
2017-09-27T01:07:07.876Z,0
2017-09-27T01:08:08.163Z,0
2017-09-27T01:09:07.817Z,0
2017-09-27T01:10:07.801Z,0
2017-09-27T01:11:07.473Z,0
2017-09-27T01:12:08.422Z,0
2017-09-27T01:13:08.091Z,0
2017-09-27T01:14:07.753Z,0
2017-09-27T01:15:07.750Z,0
2017-09-27T01:16:07.405Z,0
2017-09-27T01:17:07.710Z,0
2017-09-27T01:18:08.347Z,0
2017-09-27T01:19:08.000Z,0
2017-09-27T01:20:07.993Z,0
2017-09-27T01:21:07.987Z,0
2017-09-27T01:22:07.979Z,0
2017-09-27T01:23:07.314Z,0
2017-09-27T01:24:07.948Z,0
2017-09-27T01:25:08.242Z,0
2017-09-27T01:26:08.241Z,0
2017-09-27T01:27:07.579Z,0
2017-09-27T01:28:08.206Z,0
2017-09-27T01:29:07.548Z,0
2017-09-27T01:30:07.537Z,0
2017-09-27T01:31:07.851Z,0
2017-09-27T01:32:08.171Z,0
2017-09-27T01:33:07.819Z,0
2017-09-27T01:34:07.810Z,0
2017-09-27T01:35:08.110Z,0
2017-09-27T01:36:07.780Z,0
2017-09-27T01:37:07.440Z,0
2017-09-27T01:38:07.749Z,0
2017-09-27T01:39:07.784Z,0
2017-09-27T01:40:07.722Z,0
2017-09-27T01:41:07.391Z,0
2017-09-27T01:42:07.691Z,0
2017-09-27T01:43:07.682Z,0
2017-09-27T01:44:07.993Z,0
2017-09-27T01:45:07.339Z,0
2017-09-27T01:46:07.637Z,0
2017-09-27T01:47:07.626Z,0
2017-09-27T01:48:06.975Z,0
2017-09-27T01:49:07.277Z,0
2017-09-27T01:50:07.595Z,0
2017-09-27T01:51:07.251Z,0
2017-09-27T01:52:07.242Z,0
2017-09-27T01:53:07.871Z,0
2017-09-27T01:54:07.539Z,0
2017-09-27T01:55:07.201Z,0
2017-09-27T01:56:06.878Z,0
2017-09-27T01:57:06.858Z,0
2017-09-27T01:58:07.485Z,0
2017-09-27T01:59:07.525Z,0
2017-09-27T02:00:07.663Z,0
2017-09-27T02:01:07.449Z,0
2017-09-27T02:02:07.754Z,0
2017-09-27T02:03:07.415Z,0
2017-09-27T02:04:07.082Z,0
2017-09-27T02:05:07.709Z,0
2017-09-27T02:06:07.056Z,0
2017-09-27T02:07:07.038Z,0
2017-09-27T02:08:07.346Z,0
2017-09-27T02:09:07.011Z,0
2017-09-27T02:10:06.999Z,0
2017-09-27T02:11:06.984Z,0
2017-09-27T02:12:07.294Z,0
2017-09-27T02:13:07.598Z,0
2017-09-27T02:14:06.943Z,0
2017-09-27T02:15:07.262Z,0
2017-09-27T02:16:07.574Z,0
2017-09-27T02:17:07.548Z,0
2017-09-27T02:18:06.889Z,0
2017-09-27T02:19:06.876Z,0
2017-09-27T02:20:07.186Z,0
2017-09-27T02:21:07.178Z,0
2017-09-27T02:22:06.841Z,0
2017-09-27T02:23:06.824Z,0
2017-09-27T02:24:06.827Z,0
2017-09-27T02:25:06.798Z,0
2017-09-27T02:26:07.124Z,0
2017-09-27T02:27:07.103Z,0
2017-09-27T02:28:07.406Z,0
2017-09-27T02:29:06.745Z,0
2017-09-27T02:30:07.390Z,0
2017-09-27T02:31:06.725Z,0
2017-09-27T02:32:06.707Z,0
2017-09-27T02:33:07.009Z,0
2017-09-27T02:34:06.676Z,0
2017-09-27T02:35:06.996Z,0
2017-09-27T02:36:06.650Z,0
2017-09-27T02:37:06.962Z,0
2017-09-27T02:38:07.273Z,0
2017-09-27T02:39:06.935Z,0
2017-09-27T02:40:06.917Z,0
2017-09-27T02:41:06.580Z,0
2017-09-27T02:42:06.891Z,0
2017-09-27T02:43:06.230Z,0
2017-09-27T02:44:07.189Z,0
2017-09-27T02:45:07.188Z,0
2017-09-27T02:46:06.839Z,0
2017-09-27T02:47:06.829Z,0
2017-09-27T02:48:06.492Z,0
2017-09-27T02:49:06.154Z,0
2017-09-27T02:50:06.792Z,0
2017-09-27T02:51:06.459Z,0
2017-09-27T02:52:06.759Z,0
2017-09-27T02:53:06.430Z,0
2017-09-27T02:54:06.410Z,0
2017-09-27T02:55:06.397Z,0
2017-09-27T02:56:07.025Z,0
2017-09-27T02:57:06.684Z,0
2017-09-27T02:58:06.356Z,0
2017-09-27T02:59:06.352Z,0
2017-09-27T03:00:06.648Z,0
2017-09-27T03:01:05.993Z,0
2017-09-27T03:02:06.623Z,0
2017-09-27T03:03:06.610Z,0
2017-09-27T03:04:06.283Z,0
2017-09-27T03:05:06.914Z,0
2017-09-27T03:06:06.292Z,0
2017-09-27T03:07:06.875Z,0
2017-09-27T03:08:06.544Z,0
2017-09-27T03:09:06.209Z,0
2017-09-27T03:10:06.208Z,0
2017-09-27T03:11:06.190Z,0
2017-09-27T03:12:06.173Z,0
2017-09-27T03:13:05.834Z,0
2017-09-27T03:14:06.461Z,0
2017-09-27T03:15:06.787Z,0
2017-09-27T03:16:06.438Z,0
2017-09-27T03:17:06.095Z,0
2017-09-27T03:18:06.411Z,0
2017-09-27T03:19:06.391Z,0
2017-09-27T03:20:06.700Z,0
2017-09-27T03:21:06.051Z,0
2017-09-27T03:22:06.026Z,0
2017-09-27T03:23:06.340Z,0
2017-09-27T03:24:06.335Z,0
2017-09-27T03:25:05.995Z,0
2017-09-27T03:26:06.621Z,0
2017-09-27T03:27:06.281Z,0
2017-09-27T03:28:05.948Z,0
2017-09-27T03:29:06.272Z,0
2017-09-27T03:30:06.258Z,0
2017-09-27T03:31:06.246Z,0
2017-09-27T03:32:06.546Z,0
2017-09-27T03:33:06.203Z,0
2017-09-27T03:34:05.878Z,0
2017-09-27T03:35:06.500Z,0
2017-09-27T03:36:05.842Z,0
2017-09-27T03:37:06.153Z,0
2017-09-27T03:38:06.148Z,0
2017-09-27T03:39:06.442Z,0
2017-09-27T03:40:06.107Z,0
2017-09-27T03:41:06.107Z,0
2017-09-27T03:42:06.403Z,0
2017-09-27T03:43:06.074Z,0
2017-09-27T03:44:06.374Z,0
2017-09-27T03:45:06.053Z,0
2017-09-27T03:46:06.024Z,0
2017-09-27T03:47:06.034Z,0
2017-09-27T03:48:05.996Z,0
2017-09-27T03:49:05.995Z,0
2017-09-27T03:50:05.647Z,0
2017-09-27T03:51:06.010Z,0
2017-09-27T03:52:06.266Z,0
2017-09-27T03:53:06.256Z,0
2017-09-27T03:54:05.596Z,0
2017-09-27T03:55:05.257Z,0
2017-09-27T03:56:05.564Z,0
2017-09-27T03:57:05.873Z,0
2017-09-27T03:58:05.545Z,0
2017-09-27T03:59:06.176Z,0
2017-09-27T04:00:05.715Z,0
2017-09-27T04:01:06.139Z,0
2017-09-27T04:02:06.125Z,0
2017-09-27T04:03:05.797Z,0
2017-09-27T04:04:05.779Z,0
2017-09-27T04:05:05.776Z,0
2017-09-27T04:06:06.076Z,0
2017-09-27T04:07:05.743Z,0
2017-09-27T04:08:05.729Z,0
2017-09-27T04:09:05.710Z,0
2017-09-27T04:10:06.025Z,0
2017-09-27T04:11:05.357Z,0
2017-09-27T04:12:05.680Z,0
2017-09-27T04:13:05.333Z,0
2017-09-27T04:14:05.641Z,0
2017-09-27T04:15:05.622Z,0
2017-09-27T04:16:05.611Z,0
2017-09-27T04:17:04.956Z,0
2017-09-27T04:18:05.260Z,0
2017-09-27T04:19:05.255Z,0
2017-09-27T04:20:05.236Z,0
2017-09-27T04:21:05.219Z,0
2017-09-27T04:22:05.853Z,0
2017-09-27T04:23:05.194Z,0
2017-09-27T04:24:05.503Z,0
2017-09-27T04:25:05.168Z,0
2017-09-27T04:26:04.833Z,0
2017-09-27T04:27:05.138Z,0
2017-09-27T04:28:05.127Z,0
2017-09-27T04:29:04.794Z,0
2017-09-27T04:30:05.418Z,0
2017-09-27T04:31:05.090Z,0
2017-09-27T04:32:05.071Z,0
2017-09-27T04:33:05.056Z,0
2017-09-27T04:34:05.367Z,0
2017-09-27T04:35:05.354Z,0
2017-09-27T04:36:05.335Z,0
2017-09-27T04:37:05.322Z,0
2017-09-27T04:38:05.628Z,0
2017-09-27T04:39:04.653Z,0
2017-09-27T04:40:04.962Z,0
2017-09-27T04:41:05.592Z,0
2017-09-27T04:42:04.929Z,0
2017-09-27T04:43:05.236Z,0
2017-09-27T04:44:05.226Z,0
2017-09-27T04:45:04.892Z,0
2017-09-27T04:46:05.201Z,0
2017-09-27T04:47:04.865Z,0
2017-09-27T04:48:04.856Z,0
2017-09-27T04:49:05.489Z,0
2017-09-27T04:50:05.462Z,0
2017-09-27T04:51:05.129Z,0
2017-09-27T04:52:04.472Z,0
2017-09-27T04:53:05.100Z,0
2017-09-27T04:54:05.087Z,0
2017-09-27T04:55:04.751Z,0
2017-09-27T04:56:05.384Z,0
2017-09-27T04:57:05.044Z,0
2017-09-27T04:58:05.040Z,4
2017-09-27T04:59:05.021Z,4
2017-09-27T05:00:05.008Z,0
2017-09-27T05:01:04.714Z,4
2017-09-27T05:02:04.984Z,4
2017-09-27T05:03:04.644Z,4
2017-09-27T05:04:05.279Z,4
2017-09-27T05:05:04.618Z,8
2017-09-27T05:06:05.241Z,8
2017-09-27T05:07:04.267Z,8
2017-09-27T05:08:04.891Z,12
2017-09-27T05:09:04.884Z,12
2017-09-27T05:10:05.204Z,20
2017-09-27T05:11:04.894Z,20
2017-09-27T05:12:05.178Z,24
2017-09-27T05:13:04.832Z,28
2017-09-27T05:14:05.145Z,32
2017-09-27T05:15:04.153Z,40
2017-09-27T05:16:04.785Z,44
2017-09-27T05:17:04.137Z,48
2017-09-27T05:18:04.764Z,56
2017-09-27T05:19:05.070Z,64
2017-09-27T05:20:04.734Z,72
2017-09-27T05:21:04.407Z,80
2017-09-27T05:22:04.060Z,92
2017-09-27T05:23:04.370Z,104
2017-09-27T05:24:04.674Z,112
2017-09-27T05:25:04.982Z,120
2017-09-27T05:26:04.324Z,132
2017-09-27T05:27:03.995Z,148
2017-09-27T05:28:04.944Z,156
2017-09-27T05:29:03.961Z,172
2017-09-27T05:30:04.585Z,184
2017-09-27T05:31:04.576Z,200
2017-09-27T05:32:04.561Z,216
2017-09-27T05:33:03.904Z,232
2017-09-27T05:34:04.864Z,248
2017-09-27T05:35:04.527Z,264
2017-09-27T05:36:03.870Z,288
2017-09-27T05:37:04.491Z,320
2017-09-27T05:38:04.157Z,344
2017-09-27T05:39:04.146Z,372
2017-09-27T05:40:04.461Z,392
2017-09-27T05:41:04.763Z,412
2017-09-27T05:42:04.113Z,440
2017-09-27T05:43:04.735Z,464
2017-09-27T05:44:04.398Z,488
2017-09-27T05:45:04.055Z,512
2017-09-27T05:46:04.693Z,540
2017-09-27T05:47:04.347Z,568
2017-09-27T05:48:04.349Z,592
2017-09-27T05:49:04.683Z,616
2017-09-27T05:50:04.318Z,648
2017-09-27T05:51:03.979Z,676
2017-09-27T05:52:03.639Z,704
2017-09-27T05:53:04.588Z,740
2017-09-27T05:54:03.938Z,776
2017-09-27T05:55:04.569Z,812
2017-09-27T05:56:04.238Z,840
2017-09-27T05:57:04.213Z,856
2017-09-27T05:58:03.882Z,864
2017-09-27T05:59:04.511Z,876
2017-09-27T06:00:04.466Z,900
2017-09-27T06:01:04.164Z,928
2017-09-27T06:02:04.145Z,968
2017-09-27T06:03:04.451Z,996
2017-09-27T06:04:03.802Z,1004
2017-09-27T06:05:04.119Z,1004
2017-09-27T06:06:04.094Z,1012
2017-09-27T06:07:04.078Z,1016
2017-09-27T06:08:03.737Z,1020
2017-09-27T06:09:04.042Z,1048
2017-09-27T06:10:03.711Z,1076
2017-09-27T06:11:03.382Z,1096
2017-09-27T06:12:04.008Z,1124
2017-09-27T06:13:03.996Z,1160
2017-09-27T06:14:03.985Z,1180
2017-09-27T06:15:04.285Z,1172
2017-09-27T06:16:04.271Z,1168
2017-09-27T06:17:04.258Z,1172
2017-09-27T06:18:03.923Z,1176
2017-09-27T06:19:03.589Z,1168
2017-09-27T06:20:03.892Z,1156
2017-09-27T06:21:03.562Z,1144
2017-09-27T06:22:04.187Z,1152
2017-09-27T06:23:03.530Z,1176
2017-09-27T06:24:03.517Z,1200
2017-09-27T06:25:03.835Z,1196
2017-09-27T06:26:03.826Z,1208
2017-09-27T06:27:03.804Z,1240
2017-09-27T06:28:03.464Z,1276
2017-09-27T06:29:04.096Z,1324
2017-09-27T06:30:04.094Z,1388
2017-09-27T06:31:03.426Z,1456
2017-09-27T06:32:03.413Z,1528
2017-09-27T06:33:03.724Z,1588
2017-09-27T06:34:03.732Z,1644
2017-09-27T06:35:03.366Z,1704
2017-09-27T06:36:03.673Z,1752
2017-09-27T06:37:03.344Z,1796
2017-09-27T06:38:03.334Z,1836
2017-09-27T06:39:03.954Z,1880
2017-09-27T06:40:03.625Z,1932
2017-09-27T06:41:03.928Z,1996
2017-09-27T06:42:03.274Z,2048
2017-09-27T06:43:02.943Z,2084
2017-09-27T06:44:03.571Z,2100
2017-09-27T06:45:03.919Z,2136
2017-09-27T06:46:03.550Z,2156
2017-09-27T06:47:03.531Z,2192
2017-09-27T06:48:03.845Z,2200
2017-09-27T06:49:03.185Z,2216
2017-09-27T06:50:03.498Z,2244
2017-09-27T06:51:03.484Z,2260
2017-09-27T06:52:03.147Z,2276
2017-09-27T06:53:03.131Z,2324
2017-09-27T06:54:03.435Z,2384
2017-09-27T06:55:03.107Z,2452
2017-09-27T06:56:03.087Z,2520
2017-09-27T06:57:03.394Z,2608
2017-09-27T06:58:03.065Z,2664
2017-09-27T06:59:03.050Z,2732
2017-09-27T07:00:03.685Z,2852
2017-09-27T07:01:03.346Z,3012
2017-09-27T07:02:03.008Z,3216
2017-09-27T07:03:03.311Z,3424
2017-09-27T07:04:03.314Z,3588
2017-09-27T07:05:03.296Z,3696
2017-09-27T07:06:03.281Z,3788
2017-09-27T07:07:03.584Z,3896
2017-09-27T07:08:02.615Z,3992
2017-09-27T07:09:03.240Z,4092
2017-09-27T07:10:03.557Z,4224
2017-09-27T07:11:02.907Z,4364
2017-09-27T07:12:03.211Z,4480
2017-09-27T07:13:03.193Z,4576
2017-09-27T07:14:02.855Z,4712
2017-09-27T07:15:03.485Z,4948
2017-09-27T07:16:03.147Z,5248
2017-09-27T07:17:02.810Z,5552
2017-09-27T07:18:03.124Z,5832
2017-09-27T07:19:03.447Z,6012
2017-09-27T07:20:03.099Z,6116
2017-09-27T07:21:02.765Z,6200
2017-09-27T07:22:03.074Z,6296
2017-09-27T07:23:02.774Z,6400
2017-09-27T07:24:03.376Z,6484
2017-09-27T07:25:03.036Z,6572
2017-09-27T07:26:02.716Z,6572
2017-09-27T07:27:03.335Z,6560
2017-09-27T07:28:02.998Z,6564
2017-09-27T07:29:02.664Z,6516
2017-09-27T07:30:02.662Z,6412
2017-09-27T07:31:02.970Z,6244
2017-09-27T07:32:03.278Z,6100
2017-09-27T07:33:02.942Z,5996
2017-09-27T07:34:02.929Z,5932
2017-09-27T07:35:02.606Z,5916
2017-09-27T07:36:02.580Z,5888
2017-09-27T07:37:02.567Z,5856
2017-09-27T07:38:02.876Z,5852
2017-09-27T07:39:02.544Z,5844
2017-09-27T07:40:02.858Z,5764
2017-09-27T07:41:02.848Z,5688
2017-09-27T07:42:02.839Z,5588
2017-09-27T07:43:02.193Z,5504
2017-09-27T07:44:02.486Z,5416
2017-09-27T07:45:02.474Z,5288
2017-09-27T07:46:02.463Z,5092
2017-09-27T07:47:02.780Z,4928
2017-09-27T07:48:02.770Z,4820
2017-09-27T07:49:02.759Z,4788
2017-09-27T07:50:02.105Z,4804
2017-09-27T07:51:02.406Z,4824
2017-09-27T07:52:02.714Z,4852
2017-09-27T07:53:02.712Z,4832
2017-09-27T07:54:02.372Z,4808
2017-09-27T07:55:02.046Z,4764
2017-09-27T07:56:02.675Z,4740
2017-09-27T07:57:02.975Z,4724
2017-09-27T07:58:02.659Z,4760
2017-09-27T07:59:02.635Z,4756
2017-09-27T08:00:02.304Z,4716
2017-09-27T08:01:01.971Z,4660
2017-09-27T08:02:02.605Z,4640
2017-09-27T08:03:02.605Z,4640
2017-09-27T08:04:02.261Z,4636
2017-09-27T08:05:01.926Z,4384
2017-09-27T08:06:01.926Z,4132
2017-09-27T08:07:02.226Z,3940
2017-09-27T08:08:02.868Z,3864
2017-09-27T08:09:02.847Z,3868
2017-09-27T08:10:02.190Z,3860
2017-09-27T08:11:02.819Z,3828
2017-09-27T08:12:02.487Z,3812
2017-09-27T08:13:02.157Z,3816
2017-09-27T08:14:02.150Z,3888
2017-09-27T08:15:02.459Z,4004
2017-09-27T08:16:02.125Z,4180
2017-09-27T08:17:02.441Z,4356
2017-09-27T08:18:02.425Z,4472
2017-09-27T08:19:02.740Z,4568
2017-09-27T08:20:02.087Z,4652
2017-09-27T08:21:01.752Z,4716
2017-09-27T08:22:02.058Z,4836
2017-09-27T08:23:02.065Z,4904
2017-09-27T08:24:02.355Z,5048
2017-09-27T08:25:02.347Z,5212
2017-09-27T08:26:01.690Z,5492
2017-09-27T08:27:02.001Z,5912
2017-09-27T08:28:02.635Z,6224
2017-09-27T08:29:01.978Z,6536
2017-09-27T08:30:01.972Z,6672
2017-09-27T08:31:01.957Z,6592
2017-09-27T08:32:02.263Z,6716
2017-09-27T08:33:02.255Z,6816
2017-09-27T08:34:01.962Z,7024
2017-09-27T08:35:02.238Z,7244
2017-09-27T08:36:01.899Z,7136
2017-09-27T08:37:01.570Z,6972
2017-09-27T08:38:02.201Z,6712
2017-09-27T08:39:02.242Z,6408
2017-09-27T08:40:01.855Z,6160
2017-09-27T08:41:02.499Z,6004
2017-09-27T08:42:02.179Z,5960
2017-09-27T08:43:01.509Z,5952
2017-09-27T08:44:01.491Z,5936
2017-09-27T08:45:01.812Z,5892
2017-09-27T08:46:02.459Z,5852
2017-09-27T08:47:01.456Z,5888
2017-09-27T08:48:02.089Z,5944
2017-09-27T08:49:02.079Z,5964
2017-09-27T08:50:02.062Z,5992
2017-09-27T08:51:02.072Z,6048
2017-09-27T08:52:02.364Z,6104
2017-09-27T08:53:02.350Z,6116
2017-09-27T08:54:01.704Z,6160
2017-09-27T08:55:02.336Z,6188
2017-09-27T08:56:01.361Z,6216
2017-09-27T08:57:01.988Z,6252
2017-09-27T08:58:01.341Z,6284
2017-09-27T08:59:02.293Z,6360
2017-09-27T09:00:01.635Z,6444
2017-09-27T09:01:01.625Z,6496
2017-09-27T09:02:01.941Z,6516
2017-09-27T09:03:01.603Z,6484
2017-09-27T09:04:01.596Z,6496
2017-09-27T09:05:01.911Z,6576
2017-09-27T09:06:02.208Z,6696
2017-09-27T09:07:01.564Z,6684
2017-09-27T09:08:01.875Z,6676
2017-09-27T09:09:01.868Z,6692
2017-09-27T09:10:01.524Z,6708
2017-09-27T09:11:02.159Z,6752
2017-09-27T09:12:01.824Z,6764
2017-09-27T09:13:02.135Z,6800
2017-09-27T09:14:02.131Z,6848
2017-09-27T09:15:01.802Z,6892
2017-09-27T09:16:01.814Z,6968
2017-09-27T09:17:02.095Z,6988
2017-09-27T09:18:01.446Z,6980
2017-09-27T09:19:01.761Z,7048
2017-09-27T09:20:01.420Z,7092
2017-09-27T09:21:01.730Z,7144
2017-09-27T09:22:01.720Z,7188
2017-09-27T09:23:01.707Z,7396
2017-09-27T09:24:01.386Z,7336
2017-09-27T09:25:01.692Z,7324
2017-09-27T09:26:01.679Z,7380
2017-09-27T09:27:01.348Z,7488
2017-09-27T09:28:01.343Z,7608
2017-09-27T09:29:01.655Z,7720
2017-09-27T09:30:01.960Z,7756
2017-09-27T09:31:01.633Z,7784
2017-09-27T09:32:01.623Z,7788
2017-09-27T09:33:01.936Z,7824
2017-09-27T09:34:01.919Z,7856
2017-09-27T09:35:01.915Z,7912
2017-09-27T09:36:01.258Z,8136
2017-09-27T09:37:01.245Z,8188
2017-09-27T09:38:01.563Z,8196
2017-09-27T09:39:01.925Z,8268
2017-09-27T09:40:01.551Z,8292
2017-09-27T09:41:01.849Z,8280
2017-09-27T09:42:01.196Z,8244
2017-09-27T09:43:01.188Z,8268
2017-09-27T09:44:01.503Z,8240
2017-09-27T09:45:01.498Z,8228
2017-09-27T09:46:01.478Z,8216
2017-09-27T09:47:01.788Z,8288
2017-09-27T09:48:01.459Z,8328
2017-09-27T09:49:00.808Z,8380
2017-09-27T09:50:01.443Z,8448
2017-09-27T09:51:01.112Z,8528
2017-09-27T09:52:01.098Z,8568
2017-09-27T09:53:01.727Z,8656
2017-09-27T09:54:01.081Z,8800
2017-09-27T09:55:01.393Z,8828
2017-09-27T09:56:01.711Z,8952
2017-09-27T09:57:00.724Z,9068
2017-09-27T09:58:01.359Z,8940
2017-09-27T09:59:01.675Z,8848
2017-09-27T10:00:00.703Z,8832
2017-09-27T10:01:01.534Z,8916
2017-09-27T10:02:01.642Z,9200
2017-09-27T10:03:00.672Z,8964
2017-09-27T10:04:00.992Z,8888
2017-09-27T10:05:00.973Z,8996
2017-09-27T10:06:01.280Z,9116
2017-09-27T10:07:01.273Z,9092
2017-09-27T10:08:01.273Z,10200
2017-09-27T10:09:01.271Z,10548
2017-09-27T10:10:01.255Z,9352
2017-09-27T10:11:01.579Z,9368
2017-09-27T10:12:01.227Z,9408
2017-09-27T10:13:01.544Z,9420
2017-09-27T10:14:01.208Z,9496
2017-09-27T10:15:01.207Z,9464
2017-09-27T10:16:01.192Z,9500
2017-09-27T10:17:00.536Z,9596
2017-09-27T10:18:01.176Z,9648
2017-09-27T10:19:00.851Z,9704
2017-09-27T10:20:01.156Z,9700
2017-09-27T10:21:01.474Z,9728
2017-09-27T10:22:01.143Z,9736
2017-09-27T10:23:01.125Z,9716
2017-09-27T10:24:00.471Z,9768
2017-09-27T10:25:01.158Z,9852
2017-09-27T10:26:01.096Z,9892
2017-09-27T10:27:01.094Z,9900
2017-09-27T10:28:01.418Z,9972
2017-09-27T10:29:00.756Z,10124
2017-09-27T10:30:00.754Z,10152
2017-09-27T10:31:01.066Z,10272
2017-09-27T10:32:01.375Z,10372
2017-09-27T10:33:00.722Z,10644
2017-09-27T10:34:01.029Z,10724
2017-09-27T10:35:00.383Z,10900
2017-09-27T10:36:01.028Z,11028
2017-09-27T10:37:00.686Z,12052
2017-09-27T10:38:00.367Z,11972
2017-09-27T10:39:00.662Z,12832
2017-09-27T10:40:00.980Z,13044
2017-09-27T10:41:00.993Z,13572
2017-09-27T10:42:00.641Z,12860
2017-09-27T10:43:00.952Z,12092
2017-09-27T10:44:00.945Z,11708
2017-09-27T10:45:00.617Z,11728
2017-09-27T10:46:00.927Z,12572
2017-09-27T10:47:01.239Z,15032
2017-09-27T10:48:00.594Z,17484
2017-09-27T10:49:00.915Z,15552
2017-09-27T10:50:00.580Z,13020
2017-09-27T10:51:00.891Z,12316
2017-09-27T10:52:00.881Z,11896
2017-09-27T10:53:00.553Z,12108
2017-09-27T10:54:00.876Z,12232
2017-09-27T10:55:00.535Z,12348
2017-09-27T10:56:00.853Z,12424
2017-09-27T10:57:00.845Z,13504
2017-09-27T10:58:01.156Z,14588
2017-09-27T10:59:00.823Z,15756
2017-09-27T11:00:00.837Z,14108
2017-09-27T11:01:00.516Z,12672
2017-09-27T11:02:00.827Z,12956
2017-09-27T11:03:00.801Z,12684
2017-09-27T11:04:01.155Z,12856
2017-09-27T11:05:00.787Z,12820
2017-09-27T11:06:01.120Z,12792
2017-09-27T11:07:00.463Z,13596
2017-09-27T11:08:01.119Z,13292
2017-09-27T11:09:00.764Z,12980
2017-09-27T11:10:00.751Z,13420
2017-09-27T11:11:00.738Z,13548
2017-09-27T11:12:01.068Z,14348
2017-09-27T11:13:00.741Z,14468
2017-09-27T11:14:01.037Z,13428
2017-09-27T11:15:00.070Z,13592
2017-09-27T11:16:00.702Z,18080
2017-09-27T11:17:00.380Z,25952
2017-09-27T11:18:00.691Z,29952
2017-09-27T11:19:00.690Z,24928
2017-09-27T11:20:01.014Z,19456
2017-09-27T11:21:00.030Z,19936
2017-09-27T11:22:00.341Z,24416
2017-09-27T11:23:00.661Z,21920
2017-09-27T11:24:00.327Z,24512
2017-09-27T11:25:00.640Z,22304
2017-09-27T11:26:00.972Z,14376
2017-09-27T11:27:00.315Z,15200
2017-09-27T11:28:00.304Z,20032
2017-09-27T11:29:00.940Z,18656
2017-09-27T11:30:00.935Z,16768
2017-09-27T11:31:00.608Z,17792
2017-09-27T11:32:00.281Z,19808
2017-09-27T11:33:00.606Z,20128
2017-09-27T11:33:59.951Z,20864
2017-09-27T11:35:00.589Z,20736
2017-09-27T11:36:00.262Z,18784
2017-09-27T11:37:00.256Z,16532
2017-09-27T11:38:00.572Z,17076
2017-09-27T11:39:00.578Z,18976
2017-09-27T11:40:00.580Z,21888
2017-09-27T11:41:00.245Z,24544
2017-09-27T11:42:00.885Z,27904
2017-09-27T11:43:00.229Z,42688
2017-09-27T11:44:00.574Z,52000
2017-09-27T11:44:59.897Z,52448
2017-09-27T11:45:59.893Z,52832
2017-09-27T11:47:00.532Z,53344
2017-09-27T11:48:00.853Z,53344
2017-09-27T11:49:00.521Z,51296
2017-09-27T11:50:00.204Z,49152
2017-09-27T11:51:00.841Z,45824
2017-09-27T11:52:00.195Z,43296
2017-09-27T11:53:00.517Z,40928
2017-09-27T11:54:00.514Z,42496
2017-09-27T11:55:00.828Z,44640
2017-09-27T11:56:00.852Z,47104
2017-09-27T11:57:00.874Z,49568
2017-09-27T11:58:00.186Z,51488
2017-09-27T11:59:00.834Z,52480
2017-09-27T12:00:00.513Z,52512
2017-09-27T12:01:01.035Z,52704
2017-09-27T12:02:00.509Z,53056
2017-09-27T12:03:00.224Z,52736
2017-09-27T12:04:00.506Z,48512
2017-09-27T12:05:00.842Z,50944
2017-09-27T12:06:00.197Z,51936
2017-09-27T12:07:00.191Z,52384
2017-09-27T12:08:00.519Z,54112
2017-09-27T12:09:00.840Z,54432
2017-09-27T12:10:00.200Z,55904
2017-09-27T12:11:00.579Z,57568
2017-09-27T12:12:00.853Z,58272
2017-09-27T12:13:00.523Z,57600
2017-09-27T12:14:00.854Z,57440
2017-09-27T12:15:00.216Z,54816
2017-09-27T12:16:00.214Z,51264
2017-09-27T12:17:00.216Z,49184
2017-09-27T12:18:00.541Z,47200
2017-09-27T12:19:00.550Z,47808
2017-09-27T12:20:00.900Z,49152
2017-09-27T12:21:00.552Z,51616
2017-09-27T12:22:00.901Z,52576
2017-09-27T12:23:00.249Z,54656
2017-09-27T12:24:00.569Z,57344
2017-09-27T12:25:00.245Z,60096
2017-09-27T12:25:59.930Z,62560
2017-09-27T12:27:00.578Z,63424
2017-09-27T12:28:00.901Z,65088
2017-09-27T12:29:00.907Z,19488
2017-09-27T12:30:00.909Z,20640
2017-09-27T12:31:00.270Z,41952
2017-09-27T12:32:00.913Z,66208
2017-09-27T12:33:00.283Z,67296
2017-09-27T12:34:00.607Z,66144
2017-09-27T12:35:00.606Z,65216
2017-09-27T12:35:59.972Z,64384
2017-09-27T12:37:00.950Z,64480
2017-09-27T12:38:00.626Z,56096
2017-09-27T12:39:00.625Z,55552
2017-09-27T12:40:00.951Z,61696
2017-09-27T12:40:59.991Z,60160
2017-09-27T12:42:00.642Z,56352
2017-09-27T12:43:00.640Z,52832
2017-09-27T12:44:00.324Z,51776
2017-09-27T12:45:00.979Z,51488
2017-09-27T12:46:00.334Z,54560
2017-09-27T12:47:00.662Z,56320
2017-09-27T12:48:00.664Z,54720
2017-09-27T12:49:00.342Z,55840
2017-09-27T12:50:00.681Z,34880
2017-09-27T12:51:00.998Z,53536
2017-09-27T12:52:00.684Z,55360
2017-09-27T12:53:00.370Z,55392
2017-09-27T12:54:00.694Z,54912
2017-09-27T12:55:00.374Z,45696
2017-09-27T12:56:00.378Z,54240
2017-09-27T12:57:00.703Z,52736
2017-09-27T12:58:00.391Z,52224
2017-09-27T12:59:00.402Z,52896
2017-09-27T13:00:00.721Z,49472
2017-09-27T13:01:00.413Z,46368
2017-09-27T13:02:00.733Z,41600
2017-09-27T13:03:00.749Z,21536
2017-09-27T13:04:00.424Z,15060
2017-09-27T13:05:00.428Z,13864
2017-09-27T13:06:00.750Z,14544
2017-09-27T13:07:00.758Z,20320
2017-09-27T13:08:00.758Z,40704
2017-09-27T13:09:00.445Z,39424
2017-09-27T13:10:00.766Z,46080
2017-09-27T13:11:01.089Z,14044
2017-09-27T13:12:00.772Z,12544
2017-09-27T13:13:01.093Z,11196
2017-09-27T13:14:00.461Z,11172
2017-09-27T13:15:00.786Z,12728
2017-09-27T13:16:00.783Z,14596
2017-09-27T13:17:00.466Z,15052
2017-09-27T13:18:00.792Z,15556
2017-09-27T13:19:00.791Z,17024
2017-09-27T13:20:00.789Z,17248
2017-09-27T13:21:01.119Z,17312
2017-09-27T13:22:00.476Z,17152
2017-09-27T13:23:01.128Z,17184
2017-09-27T13:24:00.799Z,29088
2017-09-27T13:25:00.480Z,21056
2017-09-27T13:26:01.127Z,17888
2017-09-27T13:27:00.480Z,17728
2017-09-27T13:28:00.478Z,17984
2017-09-27T13:29:01.131Z,19008
2017-09-27T13:30:00.482Z,18400
2017-09-27T13:31:00.804Z,17312
2017-09-27T13:32:01.179Z,22848
2017-09-27T13:33:00.806Z,14952
2017-09-27T13:34:00.163Z,18240
2017-09-27T13:35:00.799Z,41536
2017-09-27T13:36:00.472Z,34848
2017-09-27T13:37:00.798Z,43136
2017-09-27T13:38:00.479Z,41984
2017-09-27T13:39:00.802Z,40896
2017-09-27T13:40:00.482Z,41984
2017-09-27T13:41:00.798Z,43776
2017-09-27T13:42:00.472Z,45472
2017-09-27T13:43:00.469Z,45664
2017-09-27T13:44:00.801Z,43104
2017-09-27T13:45:00.486Z,40672